Grand Ledge, Michigan
Current Conditions -  °F | °C
As of 3:53 PM on Tuesday 25 Nov 2014 (Local Time) from KLAN Reporting Station
Light Snow Light Snow  
Wind Chill: 20°   Ceiling: 2800
Heat Index: 30°   Visibility: 9mi
Dew Point: 21°   Wind: 14mph
Humidity: 69%   Direction: 250°WSW
Pressure: 30.07"   Gusts: NA
Location:  42.75°N, 84.74°W
Report Text: KLAN 252053Z 25012KT 9SM -SN OVC028 M01/M06 A3007 RMK AO2 SLP192 P0000 60000 T10111061 53019
Loading
Personal Weather Stations






























Interactive Weather Map New forecast layout! Learn more

10-Day Weather Forecast

Advertisements
Track Severe Weather on mobile